Time;durP1;ratioP1;P1;durP2;ratioP2;P2;SDS_P1;SDS_P2;PMS_P1;PMS_P2;Temp;Humidity;BMP_temperature;BMP_pressure;BME280_temperature;BME280_humidity;BME280_pressure;Samples;Min_cycle;Max_cycle;Signal;HPM_P1;HPM_P2
2024/01/12 00:02:49;;;;;;;;;;;;;;;-20.57;64.17;95605.44;6248893;28;20299;-65
2024/01/12 00:05:52;;;;;;;;;;;;;;;-20.53;64.13;95600.56;6248888;28;20337;-66
2024/01/12 00:08:53;;;;;;;;;;;;;;;-20.52;63.34;95599.72;6248733;28;19921;-66
2024/01/12 00:11:56;;;;;;;;;;;;;;;-20.47;62.71;95595.72;6247865;28;19921;-66
2024/01/12 00:14:57;;;;;;;;;;;;;;;-20.31;63.23;95583.75;6248234;28;20379;-66
2024/01/12 00:17:58;;;;;;;;;;;;;;;-20.52;62.43;95584.72;6229812;28;19999;-65
2024/01/12 00:20:59;;;;;;;;;;;;;;;-20.58;63.01;95569.53;6256908;28;19921;-66
2024/01/12 00:24:00;;;;;;;;;;;;;;;-20.57;63.87;95558.75;6273229;28;19921;-65
2024/01/12 00:27:01;;;;;;;;;;;;;;;-20.70;63.93;95544.16;6273126;28;19931;-65
2024/01/12 00:30:02;;;;;;;;;;;;;;;-20.55;63.88;95559.66;6273170;28;19921;-66
2024/01/12 00:33:05;;;;;;;;;;;;;;;-20.41;63.26;95537.53;6272971;28;19928;-66
2024/01/12 00:36:06;;;;;;;;;;;;;;;-20.33;63.79;95522.78;6272245;28;20338;-65
2024/01/12 00:39:08;;;;;;;;;;;;;;;-20.23;63.53;95523.13;6272461;28;19920;-66
2024/01/12 00:42:09;;;;;;;;;;;;;;;-20.27;63.47;95510.47;6273005;28;19943;-65
2024/01/12 00:45:10;;;;;;;;;;;;;;;-20.33;63.23;95505.28;6272063;28;19920;-64
2024/01/12 00:48:11;;;;;;;;;;;;;;;-20.01;63.33;95507.13;6259510;28;19928;-66
2024/01/12 00:51:12;;;;;;;;;;;;;;;-20.08;63.78;95495.22;6247164;28;20001;-65
2024/01/12 00:54:14;;;;;;;;;;;;;;;-20.03;63.84;95486.19;6246993;28;19920;-65
2024/01/12 00:57:18;;;;;;;;;;;;;;;-19.98;64.37;95472.16;6247055;28;20474;-66
2024/01/12 01:00:19;;;;;;;;;;;;;;;-19.88;63.79;95473.25;6246616;28;19921;-66
2024/01/12 01:03:24;;;;;;;;;;;;;;;-19.79;63.73;95475.16;6247471;28;19925;-66
2024/01/12 01:06:25;;;;;;;;;;;;;;;-19.86;64.35;95483.34;6246753;28;19927;-66
2024/01/12 01:09:29;;;;;;;;;;;;;;;-19.75;64.72;95492.00;6247431;28;19921;-66
2024/01/12 01:12:30;;;;;;;;;;;;;;;-19.61;63.99;95460.66;6247441;28;19975;-65
2024/01/12 01:15:31;;;;;;;;;;;;;;;-19.52;64.27;95450.88;6229770;28;19920;-66
2024/01/12 01:18:32;;;;;;;;;;;;;;;-19.48;64.78;95447.63;6246965;28;19921;-65
2024/01/12 01:21:33;;;;;;;;;;;;;;;-19.39;65.21;95436.16;6246779;28;19925;-65
2024/01/12 01:24:36;;;;;;;;;;;;;;;-19.23;64.59;95433.25;6246231;28;20326;-66
2024/01/12 01:27:42;;;;;;;;;;;;;;;-19.06;64.71;95437.03;6246910;28;19917;-65
2024/01/12 01:30:43;;;;;;;;;;;;;;;-19.12;64.37;95421.00;6228086;28;19921;-66
2024/01/12 01:33:44;;;;;;;;;;;;;;;-19.08;65.04;95413.56;6245710;28;19917;-66
2024/01/12 01:36:47;;;;;;;;;;;;;;;-19.17;65.04;95403.31;6247024;28;19921;-66
2024/01/12 01:39:48;;;;;;;;;;;;;;;-19.04;65.38;95400.31;6245941;28;19923;-65
2024/01/12 01:42:49;;;;;;;;;;;;;;;-18.98;65.20;95396.25;6246281;28;19921;-65
2024/01/12 01:45:57;;;;;;;;;;;;;;;-18.96;65.07;95397.13;6245981;28;19928;-65
2024/01/12 01:48:59;;;;;;;;;;;;;;;-19.10;65.42;95392.66;6245790;28;19921;-65
2024/01/12 01:52:03;;;;;;;;;;;;;;;-18.98;65.73;95401.28;6245894;28;19944;-65
2024/01/12 01:55:04;;;;;;;;;;;;;;;-19.00;65.13;95385.34;6228463;28;20376;-66
2024/01/12 01:58:09;;;;;;;;;;;;;;;-18.94;65.58;95395.50;6246152;28;19921;-66
2024/01/12 02:01:10;;;;;;;;;;;;;;;-18.84;65.14;95377.38;6245052;28;19920;-67
2024/01/12 02:04:12;;;;;;;;;;;;;;;-18.75;65.12;95366.72;6245238;28;20012;-65
2024/01/12 02:07:12;;;;;;;;;;;;;;;-18.93;65.03;95347.09;6245508;28;19921;-66
2024/01/12 02:10:13;;;;;;;;;;;;;;;-18.93;65.75;95339.56;6246000;28;20421;-65
2024/01/12 02:13:15;;;;;;;;;;;;;;;-18.95;65.50;95338.66;6245488;28;19939;-66
2024/01/12 02:16:17;;;;;;;;;;;;;;;-18.91;65.48;95330.41;6245105;28;19935;-65
2024/01/12 02:19:20;;;;;;;;;;;;;;;-19.15;65.27;95316.50;6245725;28;19921;-65
2024/01/12 02:22:22;;;;;;;;;;;;;;;-19.14;65.40;95318.19;6245087;28;19925;-66
2024/01/12 02:25:28;;;;;;;;;;;;;;;-19.26;66.23;95317.91;6228317;28;20403;-66
2024/01/12 02:28:31;;;;;;;;;;;;;;;-19.26;66.46;95310.38;6226489;28;19917;-65
2024/01/12 02:31:35;;;;;;;;;;;;;;;-19.34;66.35;95325.22;6245089;28;20011;-67
2024/01/12 02:34:36;;;;;;;;;;;;;;;-19.19;66.09;95329.75;6244750;28;19916;-66
2024/01/12 02:37:37;;;;;;;;;;;;;;;-19.34;66.22;95319.38;6227150;28;19921;-65
2024/01/12 02:40:38;;;;;;;;;;;;;;;-19.32;66.69;95321.09;6244699;28;20451;-65
2024/01/12 02:43:41;;;;;;;;;;;;;;;-19.09;66.64;95309.09;6244941;28;19925;-67
2024/01/12 02:46:45;;;;;;;;;;;;;;;-18.98;67.00;95313.53;6245109;28;19921;-67
2024/01/12 02:49:48;;;;;;;;;;;;;;;-18.83;65.96;95318.88;6262815;28;19927;-65
2024/01/12 02:52:51;;;;;;;;;;;;;;;-18.84;66.26;95292.13;6269486;28;19920;-66
2024/01/12 02:55:54;;;;;;;;;;;;;;;-18.99;66.48;95294.28;6269227;28;20361;-65
2024/01/12 02:58:57;;;;;;;;;;;;;;;-18.68;66.57;95294.13;6268431;28;20002;-66
2024/01/12 03:01:58;;;;;;;;;;;;;;;-18.75;65.86;95272.25;6268563;28;19927;-65
2024/01/12 03:04:59;;;;;;;;;;;;;;;-18.85;66.41;95282.88;6268413;28;19921;-66
2024/01/12 03:08:00;;;;;;;;;;;;;;;-18.95;66.29;95254.28;6268525;28;19963;-66
2024/01/12 03:11:01;;;;;;;;;;;;;;;-18.79;66.46;95255.47;6269046;28;19920;-67
2024/01/12 03:14:03;;;;;;;;;;;;;;;-18.62;66.48;95258.28;6267684;28;20386;-66
2024/01/12 03:17:04;;;;;;;;;;;;;;;-18.50;65.97;95237.59;6268873;28;19942;-66
2024/01/12 03:20:06;;;;;;;;;;;;;;;-18.64;66.20;95249.88;6268280;28;20002;-65
2024/01/12 03:23:07;;;;;;;;;;;;;;;-18.71;66.48;95238.00;6268064;28;20379;-66
2024/01/12 03:26:07;;;;;;;;;;;;;;;-18.58;66.25;95239.97;6268628;28;19922;-67
2024/01/12 03:29:09;;;;;;;;;;;;;;;-18.53;66.18;95227.53;6249659;28;19920;-67
2024/01/12 03:32:12;;;;;;;;;;;;;;;-18.41;66.23;95223.56;6268672;28;19921;-67
2024/01/12 03:35:13;;;;;;;;;;;;;;;-18.21;66.49;95223.09;6267948;28;19959;-65
2024/01/12 03:38:14;;;;;;;;;;;;;;;-18.39;66.66;95206.03;6268235;28;20555;-66
2024/01/12 03:41:16;;;;;;;;;;;;;;;-18.07;66.54;95193.22;6268058;28;19935;-65
2024/01/12 03:44:17;;;;;;;;;;;;;;;-18.12;66.32;95208.19;6267895;28;19921;-66
2024/01/12 03:47:20;;;;;;;;;;;;;;;-17.89;66.43;95203.56;6268426;28;19943;-66
2024/01/12 03:50:21;;;;;;;;;;;;;;;-17.69;65.93;95181.25;6227690;28;19928;-67
2024/01/12 03:53:24;;;;;;;;;;;;;;;-17.64;66.33;95183.84;6243817;28;19921;-66
2024/01/12 03:56:25;;;;;;;;;;;;;;;-17.73;66.67;95185.41;6225904;28;20346;-66
2024/01/12 03:59:26;;;;;;;;;;;;;;;-17.74;66.95;95173.66;6242996;28;19928;-66
2024/01/12 04:02:27;;;;;;;;;;;;;;;-17.60;67.03;95181.44;6243282;28;19928;-66
2024/01/12 04:05:28;;;;;;;;;;;;;;;-17.39;66.76;95175.03;6209611;28;20020;-66
2024/01/12 04:08:32;;;;;;;;;;;;;;;-17.33;66.75;95168.41;6243848;28;20019;-65
2024/01/12 04:11:37;;;;;;;;;;;;;;;-17.18;66.86;95169.44;6243913;28;20386;-66
2024/01/12 04:14:43;;;;;;;;;;;;;;;-17.16;67.00;95172.84;6243281;28;19920;-66
2024/01/12 04:17:44;;;;;;;;;;;;;;;-16.97;67.03;95154.66;6243422;28;19921;-66
2024/01/12 04:20:48;;;;;;;;;;;;;;;-16.86;67.21;95147.25;6242902;28;19928;-66
2024/01/12 04:23:49;;;;;;;;;;;;;;;-16.99;66.96;95136.19;6243811;28;19921;-65
2024/01/12 04:26:51;;;;;;;;;;;;;;;-16.91;67.52;95144.66;6247488;28;19921;-65
2024/01/12 04:29:52;;;;;;;;;;;;;;;-16.79;67.44;95142.28;6247944;28;19921;-66
2024/01/12 04:32:53;;;;;;;;;;;;;;;-16.53;67.48;95144.22;6247586;28;19928;-65
2024/01/12 04:35:54;;;;;;;;;;;;;;;-16.49;67.67;95133.38;6247365;28;20294;-67
2024/01/12 04:39:02;;;;;;;;;;;;;;;-16.34;67.63;95118.44;6248262;28;19956;-66
2024/01/12 04:42:08;;;;;;;;;;;;;;;-16.21;67.69;95118.56;6262967;28;19920;-66
2024/01/12 04:45:11;;;;;;;;;;;;;;;-16.21;67.47;95109.34;6247552;28;19928;-67
2024/01/12 04:48:14;;;;;;;;;;;;;;;-16.27;67.87;95093.31;6247739;28;19921;-67
2024/01/12 04:51:20;;;;;;;;;;;;;;;-15.99;68.31;95084.31;6247578;28;20008;-66
2024/01/12 04:54:26;;;;;;;;;;;;;;;-15.83;68.05;95075.22;6247590;28;20023;-66
2024/01/12 04:57:30;;;;;;;;;;;;;;;-15.70;68.19;95059.34;6247497;28;19921;-67
2024/01/12 05:00:31;;;;;;;;;;;;;;;-15.76;68.18;95062.66;6246413;28;19927;-67
2024/01/12 05:03:35;;;;;;;;;;;;;;;-15.57;68.63;95045.94;6247298;28;19920;-66
2024/01/12 05:06:38;;;;;;;;;;;;;;;-15.47;68.29;95067.88;6247501;28;19928;-66
2024/01/12 05:09:40;;;;;;;;;;;;;;;-15.36;68.53;95046.91;6246968;28;19928;-67
2024/01/12 05:12:40;;;;;;;;;;;;;;;-15.23;68.26;95038.56;6247402;28;19925;-67
2024/01/12 05:15:42;;;;;;;;;;;;;;;-15.21;67.62;95016.72;6247179;28;19932;-65
2024/01/12 05:18:42;;;;;;;;;;;;;;;-15.14;68.13;95028.53;6246521;28;20011;-66
2024/01/12 05:21:44;;;;;;;;;;;;;;;-15.13;68.45;95022.63;6246415;28;19960;-67
2024/01/12 05:24:47;;;;;;;;;;;;;;;-15.03;68.30;95013.41;6247227;28;20011;-68
2024/01/12 05:27:48;;;;;;;;;;;;;;;-14.97;68.83;95011.75;6246685;28;20013;-65
2024/01/12 05:30:52;;;;;;;;;;;;;;;-14.90;68.35;94996.63;6246657;28;20391;-66
2024/01/12 05:33:59;;;;;;;;;;;;;;;-14.78;68.80;94996.66;6246468;28;20314;-67
2024/01/12 05:37:00;;;;;;;;;;;;;;;-14.69;68.28;94986.56;6245396;28;19920;-66
2024/01/12 05:40:01;;;;;;;;;;;;;;;-14.57;68.74;94986.59;6246908;28;19920;-66
2024/01/12 05:43:02;;;;;;;;;;;;;;;-14.58;68.62;94997.53;6245758;28;19920;-66
2024/01/12 05:46:07;;;;;;;;;;;;;;;-14.39;68.03;94989.94;6246299;28;20386;-67
2024/01/12 05:49:10;;;;;;;;;;;;;;;-14.32;67.66;94972.28;6246511;28;19921;-66
2024/01/12 05:52:12;;;;;;;;;;;;;;;-14.37;67.83;94970.59;6245662;28;19921;-66
2024/01/12 05:55:18;;;;;;;;;;;;;;;-14.38;67.86;94971.41;6246212;28;19984;-65
2024/01/12 05:58:22;;;;;;;;;;;;;;;-14.41;68.39;94979.00;6246161;28;19921;-67
2024/01/12 06:01:25;;;;;;;;;;;;;;;-14.15;68.17;94953.72;6245288;28;19987;-67
2024/01/12 06:04:33;;;;;;;;;;;;;;;-14.29;68.19;94952.06;6246010;28;19921;-65
2024/01/12 06:07:34;;;;;;;;;;;;;;;-14.13;68.21;94947.84;6245686;28;19933;-66
2024/01/12 06:10:36;;;;;;;;;;;;;;;-14.00;68.75;94942.78;6245195;28;19927;-66
2024/01/12 06:13:40;;;;;;;;;;;;;;;-13.97;68.76;94955.41;6245878;28;20377;-66
2024/01/12 06:16:43;;;;;;;;;;;;;;;-13.92;68.64;94946.16;6245984;28;20302;-66
2024/01/12 06:19:44;;;;;;;;;;;;;;;-13.82;68.69;94940.22;6245082;28;19940;-66
2024/01/12 06:22:45;;;;;;;;;;;;;;;-13.68;68.28;94925.00;6245368;28;19940;-66
2024/01/12 06:25:49;;;;;;;;;;;;;;;-13.64;68.61;94937.66;6245502;28;19925;-66
2024/01/12 06:28:50;;;;;;;;;;;;;;;-13.58;68.23;94935.09;6245449;28;20426;-66
2024/01/12 06:31:53;;;;;;;;;;;;;;;-13.52;68.60;94918.22;6244927;28;19921;-67
2024/01/12 06:34:56;;;;;;;;;;;;;;;-13.26;68.81;94918.09;6228294;28;19920;-66
2024/01/12 06:38:00;;;;;;;;;;;;;;;-13.13;68.36;94905.34;6245300;28;19920;-65
2024/01/12 06:41:02;;;;;;;;;;;;;;;-13.16;68.37;94905.38;6242728;28;19921;-67
2024/01/12 06:44:03;;;;;;;;;;;;;;;-12.98;68.39;94911.19;6226411;28;19920;-66
2024/01/12 06:47:04;;;;;;;;;;;;;;;-12.98;68.48;94909.47;6244024;28;20397;-66
2024/01/12 06:50:05;;;;;;;;;;;;;;;-12.87;68.00;94904.34;6265439;28;20023;-65
2024/01/12 06:53:09;;;;;;;;;;;;;;;-12.84;68.01;94900.97;6251145;28;19921;-66
2024/01/12 06:56:19;;;;;;;;;;;;;;;-12.81;68.80;94888.28;6269733;28;19966;-66
2024/01/12 06:59:21;;;;;;;;;;;;;;;-12.72;68.29;94895.81;6269013;28;20014;-66
2024/01/12 07:02:25;;;;;;;;;;;;;;;-12.70;68.36;94874.69;6269267;28;20332;-67
2024/01/12 07:05:26;;;;;;;;;;;;;;;-12.72;68.80;94881.44;6268527;28;19927;-67
2024/01/12 07:08:27;;;;;;;;;;;;;;;-12.60;69.06;94852.66;6268585;28;20023;-67
2024/01/12 07:11:31;;;;;;;;;;;;;;;-12.31;68.59;94847.34;6268699;28;19932;-66
2024/01/12 07:14:34;;;;;;;;;;;;;;;-12.48;69.05;94844.09;6269091;28;20410;-66
2024/01/12 07:17:35;;;;;;;;;;;;;;;-12.37;69.04;94836.41;6268426;28;19927;-68
2024/01/12 07:20:36;;;;;;;;;;;;;;;-12.45;68.88;94813.69;6268617;28;19927;-67
2024/01/12 07:23:39;;;;;;;;;;;;;;;-12.42;69.60;94823.81;6268497;28;19921;-67
2024/01/12 07:26:40;;;;;;;;;;;;;;;-12.40;69.56;94817.00;6269067;28;19921;-67
2024/01/12 07:29:41;;;;;;;;;;;;;;;-12.26;69.61;94794.91;6269015;28;19972;-67
2024/01/12 07:32:44;;;;;;;;;;;;;;;-12.01;69.77;94799.72;6268390;28;19947;-66
2024/01/12 07:35:47;;;;;;;;;;;;;;;-11.99;69.76;94801.38;6268753;28;19928;-68
2024/01/12 07:38:50;;;;;;;;;;;;;;;-12.07;69.83;94810.75;6268532;28;19979;-66
2024/01/12 07:41:51;;;;;;;;;;;;;;;-11.97;69.99;94793.75;6251015;28;19928;-68
2024/01/12 07:44:57;;;;;;;;;;;;;;;-11.89;69.47;94789.41;6268962;28;19920;-67
2024/01/12 07:48:01;;;;;;;;;;;;;;;-11.86;69.45;94783.47;6265205;28;20012;-67
2024/01/12 07:51:05;;;;;;;;;;;;;;;-11.76;68.54;94770.63;6244065;28;20346;-68
2024/01/12 07:54:06;;;;;;;;;;;;;;;-11.96;68.69;94757.41;6243065;28;19921;-67
2024/01/12 07:57:12;;;;;;;;;;;;;;;-11.84;69.16;94747.06;6243882;28;20390;-66
2024/01/12 08:00:14;;;;;;;;;;;;;;;-11.70;68.78;94751.13;6246717;28;20280;-67
2024/01/12 08:03:15;;;;;;;;;;;;;;;-11.73;68.82;94748.63;6248414;28;19927;-67
2024/01/12 08:06:18;;;;;;;;;;;;;;;-11.76;68.93;94747.81;6248969;28;20015;-68
2024/01/12 08:09:19;;;;;;;;;;;;;;;-11.55;69.51;94753.44;6248492;28;19921;-67
2024/01/12 08:12:22;;;;;;;;;;;;;;;-11.50;68.59;94735.63;6247982;28;19927;-67
2024/01/12 08:15:26;;;;;;;;;;;;;;;-11.45;68.85;94726.25;6248460;28;20392;-68
2024/01/12 08:18:29;;;;;;;;;;;;;;;-11.41;68.90;94732.94;6247434;28;19921;-67
2024/01/12 08:21:30;;;;;;;;;;;;;;;-11.41;68.63;94718.56;6247961;28;19921;-67
2024/01/12 08:24:31;;;;;;;;;;;;;;;-11.31;68.44;94726.88;6248071;28;19920;-67
2024/01/12 08:27:32;;;;;;;;;;;;;;;-11.31;69.22;94722.66;6247567;28;19916;-69
2024/01/12 08:30:35;;;;;;;;;;;;;;;-11.23;69.29;94720.00;6247835;28;20430;-67
2024/01/12 08:33:38;;;;;;;;;;;;;;;-11.20;69.43;94711.50;6247617;28;19948;-65
2024/01/12 08:36:39;;;;;;;;;;;;;;;-11.17;68.58;94694.50;6247387;28;20468;-67
2024/01/12 08:39:43;;;;;;;;;;;;;;;-11.14;69.37;94684.31;6247671;28;19925;-68
2024/01/12 08:42:44;;;;;;;;;;;;;;;-10.96;69.48;94683.16;6247644;28;19944;-67
2024/01/12 08:45:45;;;;;;;;;;;;;;;-10.76;69.47;94684.50;6247343;28;19928;-67
2024/01/12 08:48:48;;;;;;;;;;;;;;;-10.70;69.30;94674.22;6247646;28;20059;-67
2024/01/12 08:51:52;;;;;;;;;;;;;;;-10.62;69.38;94673.22;6247639;28;19920;-67
2024/01/12 08:54:55;;;;;;;;;;;;;;;-10.66;69.15;94668.25;6247779;28;19924;-67
2024/01/12 08:57:58;;;;;;;;;;;;;;;-10.48;69.08;94650.09;6247612;28;19921;-67
2024/01/12 09:01:01;;;;;;;;;;;;;;;-10.15;68.29;94647.72;6247488;28;19920;-67
2024/01/12 09:04:05;;;;;;;;;;;;;;;-10.18;67.93;94638.44;6247854;28;20382;-66
2024/01/12 09:07:05;;;;;;;;;;;;;;;-10.17;67.90;94640.13;6229535;28;19921;-67
2024/01/12 09:10:07;;;;;;;;;;;;;;;-10.26;68.45;94634.38;6245926;28;19928;-67
2024/01/12 09:13:10;;;;;;;;;;;;;;;-10.20;68.34;94624.09;6246515;28;19921;-66
2024/01/12 09:16:11;;;;;;;;;;;;;;;-10.04;68.76;94615.28;6246497;28;19921;-66
2024/01/12 09:19:12;;;;;;;;;;;;;;;-10.14;68.63;94618.88;6245877;28;19941;-67
2024/01/12 09:22:16;;;;;;;;;;;;;;;-10.18;68.95;94609.66;6245259;28;19920;-67
2024/01/12 09:25:17;;;;;;;;;;;;;;;-9.95;68.76;94615.06;6245985;28;20387;-66
2024/01/12 09:28:21;;;;;;;;;;;;;;;-9.88;68.13;94592.84;6246398;28;19923;-68
2024/01/12 09:31:22;;;;;;;;;;;;;;;-9.99;68.44;94597.34;6245902;28;19983;-67
2024/01/12 09:34:23;;;;;;;;;;;;;;;-9.84;68.27;94591.09;6246068;28;19921;-67
2024/01/12 09:37:25;;;;;;;;;;;;;;;-9.85;68.35;94569.06;6245890;28;20287;-68
2024/01/12 09:40:31;;;;;;;;;;;;;;;-9.63;67.87;94570.22;6246500;28;20311;-66
2024/01/12 09:43:35;;;;;;;;;;;;;;;-9.64;67.60;94578.75;6246220;28;19947;-67
2024/01/12 09:46:44;;;;;;;;;;;;;;;-9.48;67.86;94579.22;6245872;28;19928;-66
2024/01/12 09:49:45;;;;;;;;;;;;;;;-9.73;67.46;94576.44;6245484;28;19920;-67
2024/01/12 09:52:51;;;;;;;;;;;;;;;-9.42;68.40;94573.97;6246312;28;20302;-67
2024/01/12 09:55:57;;;;;;;;;;;;;;;-9.42;68.24;94568.06;6245764;28;19944;-67
2024/01/12 09:59:01;;;;;;;;;;;;;;;-9.64;67.72;94578.75;6245834;28;19921;-67
2024/01/12 10:02:10;;;;;;;;;;;;;;;-9.59;68.03;94571.84;6246097;28;19927;-67
2024/01/12 10:05:12;;;;;;;;;;;;;;;-9.67;68.57;94568.66;6245167;28;20359;-67
2024/01/12 10:08:13;;;;;;;;;;;;;;;-9.75;68.85;94571.34;6245012;28;20279;-66
2024/01/12 10:11:14;;;;;;;;;;;;;;;-9.65;69.79;94566.03;6245940;28;19921;-67
2024/01/12 10:14:19;;;;;;;;;;;;;;;-9.68;68.19;94564.44;6245586;28;19946;-67
2024/01/12 10:17:25;;;;;;;;;;;;;;;-9.42;67.61;94573.97;6245773;28;20060;-66
2024/01/12 10:20:29;;;;;;;;;;;;;;;-9.41;67.07;94559.53;6245680;28;20034;-67
2024/01/12 10:23:33;;;;;;;;;;;;;;;-9.58;67.57;94570.13;6245031;28;19920;-68
2024/01/12 10:26:38;;;;;;;;;;;;;;;-9.67;67.11;94563.56;6245660;28;20011;-66
2024/01/12 10:29:41;;;;;;;;;;;;;;;-9.68;66.80;94556.81;6244344;28;19921;-67
2024/01/12 10:32:49;;;;;;;;;;;;;;;-9.77;66.87;94547.66;6245240;28;19921;-66
2024/01/12 10:36:13;;;;;;;;;;;;;;;-9.77;66.84;94536.63;6245392;28;19921;-67
2024/01/12 10:39:18;;;;;;;;;;;;;;;-9.86;67.59;94534.31;6230947;28;19978;-65
2024/01/12 10:42:25;;;;;;;;;;;;;;;-9.92;66.85;94534.47;6245142;28;19931;-67
2024/01/12 10:45:27;;;;;;;;;;;;;;;-10.21;67.64;94528.34;6244830;28;20400;-67
2024/01/12 10:48:29;;;;;;;;;;;;;;;-10.19;68.21;94535.06;6245185;28;20412;-68
2024/01/12 10:51:36;;;;;;;;;;;;;;;-10.26;68.07;94532.69;6245181;28;20306;-67
2024/01/12 10:54:55;;;;;;;;;;;;;;;-10.24;68.30;94536.03;6245150;28;19966;-68
2024/01/12 10:57:57;;;;;;;;;;;;;;;-10.47;69.03;94534.88;6244221;28;19928;-68
2024/01/12 11:00:58;;;;;;;;;;;;;;;-10.47;69.04;94534.88;6244952;28;19921;-67
2024/01/12 11:03:59;;;;;;;;;;;;;;;-10.53;69.48;94532.47;6227234;28;19921;-67
2024/01/12 11:07:03;;;;;;;;;;;;;;;-10.56;69.79;94540.13;6244708;28;20357;-66
2024/01/12 11:10:06;;;;;;;;;;;;;;;-10.66;70.14;94538.66;6244538;28;20412;-67
2024/01/12 11:13:13;;;;;;;;;;;;;;;-10.45;69.71;94522.09;6244731;28;19928;-67
2024/01/12 11:16:17;;;;;;;;;;;;;;;-10.49;69.70;94521.34;6244495;28;20394;-67
2024/01/12 11:19:21;;;;;;;;;;;;;;;-10.43;69.78;94520.38;6244595;28;20545;-67
2024/01/12 11:22:23;;;;;;;;;;;;;;;-10.59;70.27;94514.78;6243565;28;19928;-67
2024/01/12 11:25:27;;;;;;;;;;;;;;;-10.37;70.75;94516.88;6244408;28;20446;-66
2024/01/12 11:28:35;;;;;;;;;;;;;;;-10.23;70.84;94512.28;6244182;28;19940;-67
2024/01/12 11:31:47;;;;;;;;;;;;;;;-10.19;70.58;94509.63;6244545;28;19921;-68
2024/01/12 11:34:50;;;;;;;;;;;;;;;-10.34;71.13;94509.16;6242654;28;20306;-68
2024/01/12 11:38:00;;;;;;;;;;;;;;;-10.25;71.13;94498.75;6244193;28;19921;-68
2024/01/12 11:41:12;;;;;;;;;;;;;;;-10.32;71.12;94503.19;6244248;28;20391;-67
2024/01/12 11:44:18;;;;;;;;;;;;;;;-10.27;71.49;94495.47;6226554;28;19988;-67
2024/01/12 11:47:21;;;;;;;;;;;;;;;-10.36;71.78;94490.56;6244217;28;19921;-67
2024/01/12 11:50:27;;;;;;;;;;;;;;;-10.31;71.93;94473.50;6267411;28;19924;-68
2024/01/12 11:53:31;;;;;;;;;;;;;;;-10.25;71.89;94473.31;6268811;28;19927;-67
2024/01/12 11:56:32;;;;;;;;;;;;;;;-10.12;71.87;94469.63;6268263;28;19921;-66
2024/01/12 11:59:37;;;;;;;;;;;;;;;-10.16;72.01;94468.06;6267926;28;19921;-68
2024/01/12 12:02:40;;;;;;;;;;;;;;;-10.18;72.42;94470.63;6268485;28;20372;-68
2024/01/12 12:05:41;;;;;;;;;;;;;;;-10.07;72.31;94467.81;6268545;28;19921;-68
2024/01/12 12:08:42;;;;;;;;;;;;;;;-10.15;72.32;94459.53;6268563;28;20411;-67
2024/01/12 12:11:44;;;;;;;;;;;;;;;-10.24;72.62;94465.69;6250157;28;19973;-68
2024/01/12 12:14:57;;;;;;;;;;;;;;;-9.92;72.43;94455.59;6268235;28;19921;-68
2024/01/12 12:17:59;;;;;;;;;;;;;;;-10.12;73.00;94459.47;6268428;28;20448;-68
2024/01/12 12:21:00;;;;;;;;;;;;;;;-10.12;72.80;94464.53;6268426;28;19921;-66
2024/01/12 12:24:04;;;;;;;;;;;;;;;-9.95;72.89;94454.81;6268154;28;20434;-67
2024/01/12 12:27:06;;;;;;;;;;;;;;;-10.05;73.04;94450.78;6268653;28;19972;-68
2024/01/12 12:30:07;;;;;;;;;;;;;;;-10.06;73.79;94448.31;6268008;28;20409;-66
2024/01/12 12:33:10;;;;;;;;;;;;;;;-9.95;73.60;94447.16;6268107;28;19920;-67
2024/01/12 12:36:10;;;;;;;;;;;;;;;-9.75;73.73;94453.47;6267894;28;20406;-67
2024/01/12 12:39:14;;;;;;;;;;;;;;;-9.48;73.24;94459.56;6267775;28;19921;-67
2024/01/12 12:42:19;;;;;;;;;;;;;;;-9.48;73.51;94457.03;6267795;28;19928;-67
2024/01/12 12:45:23;;;;;;;;;;;;;;;-9.36;73.38;94446.50;6269962;28;19920;-67
2024/01/12 12:48:24;;;;;;;;;;;;;;;-9.20;73.49;94451.19;6247261;28;19928;-68
2024/01/12 12:51:25;;;;;;;;;;;;;;;-9.06;73.81;94449.94;6247677;28;19928;-68
2024/01/12 12:54:30;;;;;;;;;;;;;;;-9.18;73.57;94450.25;6247777;28;20015;-67
2024/01/12 12:57:39;;;;;;;;;;;;;;;-9.00;74.14;94442.97;6247808;28;19921;-68
2024/01/12 13:00:41;;;;;;;;;;;;;;;-9.10;73.95;94440.69;6243839;28;20402;-66
2024/01/12 13:03:42;;;;;;;;;;;;;;;-9.00;74.22;94432.78;6247044;28;20019;-67
2024/01/12 13:06:43;;;;;;;;;;;;;;;-8.92;74.08;94430.84;6247174;28;19928;-66
2024/01/12 13:09:48;;;;;;;;;;;;;;;-8.67;74.51;94421.63;6247489;28;20420;-67
2024/01/12 13:12:53;;;;;;;;;;;;;;;-8.81;74.79;94418.63;6247461;28;19921;-67
2024/01/12 13:16:02;;;;;;;;;;;;;;;-8.71;74.96;94402.22;6247408;28;19920;-67
2024/01/12 13:19:06;;;;;;;;;;;;;;;-8.75;75.03;94402.34;6246857;28;19975;-67
2024/01/12 13:22:12;;;;;;;;;;;;;;;-8.75;75.02;94395.50;6246927;28;19924;-67
2024/01/12 13:25:18;;;;;;;;;;;;;;;-8.61;75.15;94393.38;6247169;28;20421;-67
2024/01/12 13:28:19;;;;;;;;;;;;;;;-8.60;75.23;94392.53;6246101;28;19928;-67
2024/01/12 13:31:23;;;;;;;;;;;;;;;-8.45;74.49;94380.19;6261593;28;19921;-67
2024/01/12 13:34:28;;;;;;;;;;;;;;;-8.44;74.79;94381.84;6246384;28;20027;-67
2024/01/12 13:37:31;;;;;;;;;;;;;;;-8.49;75.27;94383.69;6245766;28;20448;-68
2024/01/12 13:40:37;;;;;;;;;;;;;;;-8.47;75.44;94381.94;6228949;28;19921;-69
2024/01/12 13:43:39;;;;;;;;;;;;;;;-8.37;74.86;94379.03;6246654;28;19920;-67
2024/01/12 13:46:43;;;;;;;;;;;;;;;-8.39;75.27;94379.97;6246563;28;19928;-66
2024/01/12 13:49:45;;;;;;;;;;;;;;;-8.29;75.28;94381.34;6245740;28;20410;-67
2024/01/12 13:52:49;;;;;;;;;;;;;;;-8.25;75.30;94371.88;6246380;28;20054;-68
2024/01/12 13:55:50;;;;;;;;;;;;;;;-8.34;75.10;94372.16;6245009;28;19924;-68
2024/01/12 13:58:54;;;;;;;;;;;;;;;-8.32;75.41;94365.28;6245532;28;20014;-67
2024/01/12 14:01:56;;;;;;;;;;;;;;;-8.17;75.41;94370.72;6246224;28;19927;-66
2024/01/12 14:05:00;;;;;;;;;;;;;;;-8.02;75.07;94358.34;6246050;28;19927;-68
2024/01/12 14:08:05;;;;;;;;;;;;;;;-8.20;75.67;94365.72;6246028;28;20011;-67
2024/01/12 14:11:06;;;;;;;;;;;;;;;-8.15;75.43;94368.13;6245840;28;19921;-65
2024/01/12 14:14:11;;;;;;;;;;;;;;;-8.09;76.00;94351.81;6245783;28;20298;-68
2024/01/12 14:17:14;;;;;;;;;;;;;;;-7.96;75.21;94365.78;6245885;28;19921;-67
2024/01/12 14:20:18;;;;;;;;;;;;;;;-7.96;75.04;94347.94;6246080;28;19925;-67
2024/01/12 14:23:19;;;;;;;;;;;;;;;-8.00;75.50;94347.22;6244565;28;19921;-67
2024/01/12 14:26:23;;;;;;;;;;;;;;;-7.89;75.49;94349.41;6244944;28;19928;-68
2024/01/12 14:29:24;;;;;;;;;;;;;;;-7.87;75.88;94342.50;6245400;28;19921;-68
2024/01/12 14:32:25;;;;;;;;;;;;;;;-7.78;75.30;94332.00;6245379;28;20267;-67
2024/01/12 14:35:28;;;;;;;;;;;;;;;-7.66;75.57;94342.69;6245569;28;19943;-68
2024/01/12 14:38:30;;;;;;;;;;;;;;;-7.80;75.31;94332.94;6244458;28;19920;-68
2024/01/12 14:41:36;;;;;;;;;;;;;;;-7.84;75.38;94336.47;6227858;28;19921;-68
2024/01/12 14:44:37;;;;;;;;;;;;;;;-7.76;75.72;94319.16;6243875;28;19979;-69
2024/01/12 14:47:39;;;;;;;;;;;;;;;-7.68;75.85;94330.78;6245101;28;19921;-68
2024/01/12 14:50:43;;;;;;;;;;;;;;;-7.68;76.06;94325.66;6245206;28;19925;-67
2024/01/12 14:53:45;;;;;;;;;;;;;;;-7.65;76.78;94322.19;6244834;28;19921;-67
2024/01/12 14:56:46;;;;;;;;;;;;;;;-7.37;76.52;94316.91;6245158;28;20023;-68
2024/01/12 14:59:53;;;;;;;;;;;;;;;-7.29;76.13;94321.75;6246823;28;19928;-68
2024/01/12 15:02:54;;;;;;;;;;;;;;;-7.30;76.37;94322.66;6244888;28;19928;-67
2024/01/12 15:05:55;;;;;;;;;;;;;;;-7.28;76.48;94320.84;6244706;28;19921;-68
2024/01/12 15:08:58;;;;;;;;;;;;;;;-7.23;76.51;94330.03;6244121;28;19921;-68
2024/01/12 15:12:04;;;;;;;;;;;;;;;-7.36;76.93;94326.28;6244600;28;19921;-68
2024/01/12 15:15:08;;;;;;;;;;;;;;;-7.08;77.25;94323.50;6244713;28;19928;-66
2024/01/12 15:18:12;;;;;;;;;;;;;;;-6.86;77.08;94325.25;6244576;28;19920;-69
2024/01/12 15:21:17;;;;;;;;;;;;;;;-6.83;76.83;94315.75;6244314;28;19921;-67
2024/01/12 15:24:18;;;;;;;;;;;;;;;-6.69;76.70;94320.31;6244384;28;19928;-69
2024/01/12 15:27:21;;;;;;;;;;;;;;;-6.70;76.95;94317.84;6243576;28;19920;-69
2024/01/12 15:30:22;;;;;;;;;;;;;;;-6.83;77.02;94308.06;6244016;28;19927;-68
2024/01/12 15:33:29;;;;;;;;;;;;;;;-6.66;77.05;94299.75;6244394;28;19921;-67
2024/01/12 15:36:32;;;;;;;;;;;;;;;-6.72;77.69;94301.72;6226928;28;19921;-68
2024/01/12 15:39:33;;;;;;;;;;;;;;;-6.56;76.96;94300.22;6243770;28;20422;-67
2024/01/12 15:42:34;;;;;;;;;;;;;;;-6.54;76.98;94293.31;6244297;28;19928;-69
2024/01/12 15:45:36;;;;;;;;;;;;;;;-6.60;77.83;94298.66;6244030;28;20395;-67